Pagina principale
METAR-TAF:

METAR-TAF

Aeroporti :

Aeroporto di Niamey-Diori Hamani

Niamey, Niger

latitudine: 13-29N, longitudine: 002-10E, altezza: 223 m

Osservazione

Il bollettino è stato emesso 1 ora e 9 minuti fa, alle 23:00 UTC
Vento calmo
Temperature 29°C
Umidità 58%
Pressione 1010 hPa
Visibilità 10 km o più
nessuna nube inferiore a 1500 m e nessun cumulonembo

METAR: DRRN 192300Z 00000KT CAVOK 29/20 Q1010 NOSIG

Ora: 01:09 (00:09 UTC)

Previsione

Il bollettino è stato emesso 1 ora e 9 minuti fa, alle 23:00 UTC
Previsione valida dal 20 alle 00 UTC al 21 alle 06 UTC
Vento 6 kt da sud/sud-ovest
Visibilità: 8000 m
Probabilità 30% :
Temporaneamente
dal 20 alle 15 UTC al 20 alle 20 UTC
Poco nuvoloso ad un'altezza di 4000 ft, Cumulonembo.
temporale

TAF: DRRN 192300Z 2000/2106 20006KT 8000 NSC PROB30 TEMPO 2015/2020 TS FEW040CB

Osservazioni e previsioni meteorologiche di più di 4000 aeroporti (messaggi METAR e TAF).

Le stazioni disponibili sono rappresentate dai dischi gialli e rossi sulla carta.

Puntare il mouse per vedere il nome della stazione.

Clicca sopra per visualizzare le osservazioni e previsioni meteorologiche.

Per cambiare la mappa : fare clic sui pulsanti verdi con una croce nera per ingrandire, il pulsante verde con un trattino per diminuire, o sulla freccia verde per le mappe adiacenti.


METAR-TAF: